Raymond, Ohio
Current Conditions -  °F | °C
As of 9:33 PM on Thursday 20 Nov 2014 (Local Time) from KMRT Reporting Station
Broken Clouds Broken Clouds  
Wind Chill: 13°   Ceiling: 6000
Heat Index: 24°   Visibility: 10mi
Dew Point: 13°   Wind: 10mph
Humidity: 64%   Direction: 270°W
Pressure: 30.16"   Gusts: NA
Location:  40.33°N, 83.47°W
Report Text: KMRT 210233Z AUTO 27009KT 10SM SCT040 SCT047 BKN060 M04/M10 A3016 RMK AO2 T10451104
Loading
Personal Weather Stations






























Interactive Weather Map New forecast layout! Learn more

10-Day Weather Forecast

Advertisements
Track Severe Weather on mobile